createdAt,value
2022-08-26T00:04:18.946Z,98887.98
2022-08-26T00:09:22.939Z,98887.43
2022-08-26T00:14:31.042Z,98889.69
2022-08-26T00:19:35.178Z,98887.33
2022-08-26T00:24:38.085Z,98885.25
2022-08-26T00:29:41.032Z,98881.67
2022-08-26T00:34:44.205Z,98884.24
2022-08-26T00:39:47.383Z,98886.88
2022-08-26T00:44:51.079Z,98888.55
2022-08-26T00:49:56.420Z,98888.17
2022-08-26T00:55:20.466Z,98883.54
2022-08-26T01:00:27.737Z,98887.80
2022-08-26T01:05:31.020Z,98892.55
2022-08-26T01:10:34.124Z,98891.02
2022-08-26T01:15:48.276Z,98896.70
2022-08-26T01:21:27.463Z,98895.57
2022-08-26T01:26:40.679Z,98893.91
2022-08-26T01:31:46.986Z,98891.96
2022-08-26T01:36:54.407Z,98888.33
2022-08-26T01:42:03.247Z,98887.96
2022-08-26T01:47:07.902Z,98888.49
2022-08-26T01:52:14.463Z,98884.98
2022-08-26T01:57:19.459Z,98887.40
2022-08-26T02:02:23.189Z,98886.80
2022-08-26T02:07:28.691Z,98883.98
2022-08-26T02:12:31.966Z,98886.17
2022-08-26T02:17:43.359Z,98889.48
2022-08-26T02:22:47.688Z,98891.27
2022-08-26T02:27:50.905Z,98890.48
2022-08-26T02:32:55.090Z,98890.38
2022-08-26T02:38:00.491Z,98884.63
2022-08-26T02:43:04.037Z,98882.83
2022-08-26T02:48:18.755Z,98882.34
2022-08-26T02:53:25.214Z,98876.01
2022-08-26T02:58:28.405Z,98875.16
2022-08-26T03:03:32.099Z,98874.11
2022-08-26T03:08:35.717Z,98868.96
2022-08-26T03:13:39.865Z,98872.46
2022-08-26T03:18:42.867Z,98872.98
2022-08-26T03:23:49.998Z,98866.09
2022-08-26T03:29:12.025Z,98872.20
2022-08-26T03:34:15.921Z,98868.16
2022-08-26T03:39:18.854Z,98869.40
2022-08-26T03:44:21.890Z,98869.94
2022-08-26T03:49:24.744Z,98867.85
2022-08-26T03:54:32.016Z,98868.45
2022-08-26T03:59:34.861Z,98871.19
2022-08-26T04:04:38.034Z,98874.88
2022-08-26T04:09:41.225Z,98873.67
2022-08-26T04:14:44.138Z,98876.17
2022-08-26T04:19:47.512Z,98876.08
2022-08-26T04:24:50.430Z,98879.17
2022-08-26T04:29:55.402Z,98883.23
2022-08-26T04:34:58.946Z,98884.08
2022-08-26T04:40:04.842Z,98879.73
2022-08-26T04:45:10.302Z,98873.88
2022-08-26T04:50:15.380Z,98867.03
2022-08-26T04:55:38.144Z,98863.39
2022-08-26T05:00:44.752Z,98864.30
2022-08-26T05:05:50.065Z,98862.27
2022-08-26T05:10:56.164Z,98868.27
2022-08-26T05:16:06.139Z,98866.76
2022-08-26T05:21:16.091Z,98866.77
2022-08-26T05:26:22.914Z,98872.62
2022-08-26T05:31:30.388Z,98876.11
2022-08-26T05:36:35.873Z,98875.88
2022-08-26T05:41:42.237Z,98873.36
2022-08-26T05:46:46.122Z,98872.63
2022-08-26T05:51:49.339Z,98871.39
2022-08-26T05:56:53.749Z,98869.65
2022-08-26T06:01:56.686Z,98866.55
2022-08-26T06:06:59.710Z,98860.91
2022-08-26T06:12:03.572Z,98865.86
2022-08-26T06:17:06.528Z,98861.27
2022-08-26T06:22:32.445Z,98867.29
2022-08-26T06:27:36.907Z,98863.46
2022-08-26T06:32:39.786Z,98866.47
2022-08-26T06:37:43.369Z,98863.11
2022-08-26T06:42:46.780Z,98863.23
2022-08-26T06:47:49.740Z,98863.06
2022-08-26T06:52:54.581Z,98862.69
2022-08-26T06:57:59.952Z,98865.17
2022-08-26T07:03:05.200Z,98865.45
2022-08-26T07:08:08.262Z,98869.17
2022-08-26T07:13:12.507Z,98867.19
2022-08-26T07:18:15.666Z,98861.38
2022-08-26T07:23:18.582Z,98862.11
2022-08-26T07:28:22.875Z,98856.48
2022-08-26T07:33:25.913Z,98852.84
2022-08-26T07:38:29.380Z,98852.52
2022-08-26T07:43:37.409Z,98850.96
2022-08-26T07:48:46.155Z,98844.46
2022-08-26T07:53:52.540Z,98846.33
2022-08-26T07:58:55.754Z,98845.93
2022-08-26T08:04:00.502Z,98846.27
2022-08-26T08:09:07.331Z,98845.98
2022-08-26T08:14:11.721Z,98841.86
2022-08-26T08:19:15.465Z,98832.34
2022-08-26T08:24:18.364Z,98832.38
2022-08-26T08:29:21.482Z,98831.16
2022-08-26T08:34:26.565Z,98825.56
2022-08-26T08:39:32.215Z,98823.27
2022-08-26T08:44:41.011Z,98822.41
2022-08-26T08:49:44.808Z,98820.53
2022-08-26T08:54:47.889Z,98816.41
2022-08-26T09:00:19.672Z,98815.86
2022-08-26T09:05:46.691Z,98808.80
2022-08-26T09:10:56.388Z,98808.25
2022-08-26T09:16:10.317Z,98803.06
2022-08-26T09:21:15.910Z,98801.73
2022-08-26T09:26:30.808Z,98797.63
2022-08-26T09:31:36.601Z,98793.99
2022-08-26T09:36:44.020Z,98787.87
2022-08-26T09:42:02.987Z,98783.68
2022-08-26T09:47:07.368Z,98781.81
2022-08-26T09:52:13.806Z,98778.67
2022-08-26T09:57:25.114Z,98772.52
2022-08-26T10:02:33.665Z,98768.54
2022-08-26T10:07:46.898Z,98765.02
2022-08-26T10:13:03.665Z,98759.73
2022-08-26T10:18:25.213Z,98759.59
2022-08-26T10:23:34.775Z,98755.84
2022-08-26T10:28:49.583Z,98750.42
2022-08-26T10:33:58.027Z,98750.55
2022-08-26T10:39:07.093Z,98751.05
2022-08-26T10:44:14.080Z,98744.05
2022-08-26T10:49:18.048Z,98733.92
2022-08-26T10:54:34.200Z,98735.20
2022-08-26T10:59:47.239Z,98724.07
2022-08-26T11:05:03.295Z,98723.52
2022-08-26T11:10:08.234Z,98718.17
2022-08-26T11:15:24.685Z,98710.45
2022-08-26T11:20:28.130Z,98712.90
2022-08-26T11:25:31.494Z,98714.89
2022-08-26T11:30:41.668Z,98710.55
2022-08-26T11:35:49.119Z,98706.49
2022-08-26T11:41:06.964Z,98699.30
2022-08-26T11:46:12.378Z,98690.09
2022-08-26T11:51:24.446Z,98686.72
2022-08-26T11:56:33.257Z,98683.58
2022-08-26T12:01:40.405Z,98678.85
2022-08-26T12:06:50.945Z,98671.73
2022-08-26T12:12:28.527Z,98665.88
2022-08-26T12:17:33.767Z,98664.93
2022-08-26T12:22:38.534Z,98653.68
2022-08-26T12:27:44.509Z,98648.02
2022-08-26T12:32:57.976Z,98650.44
2022-08-26T12:38:02.385Z,98650.59
2022-08-26T12:43:08.175Z,98643.11
2022-08-26T12:48:27.695Z,98640.45
2022-08-26T12:53:33.496Z,98630.75
2022-08-26T12:58:40.094Z,98625.86
2022-08-26T13:03:45.554Z,98622.27
2022-08-26T13:08:58.078Z,98614.27
2022-08-26T13:14:07.151Z,98616.85
2022-08-26T13:19:14.766Z,98613.87
2022-08-26T13:24:22.116Z,98609.14
2022-08-26T13:29:25.570Z,98604.77
2022-08-26T13:34:30.020Z,98601.67
2022-08-26T13:39:33.539Z,98597.89
2022-08-26T13:44:39.309Z,98598.90
2022-08-26T13:49:43.997Z,98596.34
2022-08-26T13:54:46.927Z,98593.48
2022-08-26T13:59:49.911Z,98591.50
2022-08-26T14:04:53.990Z,98592.36
2022-08-26T14:09:56.813Z,98582.48
2022-08-26T14:15:00.493Z,98579.61
2022-08-26T14:20:05.583Z,98581.30
2022-08-26T14:25:10.990Z,98574.43
2022-08-26T14:30:14.962Z,98573.46
2022-08-26T14:35:23.287Z,98566.94
2022-08-26T14:40:29.810Z,98576.46
2022-08-26T14:45:37.927Z,98573.82
2022-08-26T14:50:40.885Z,98574.34
2022-08-26T14:55:44.016Z,98575.46
2022-08-26T15:00:46.952Z,98576.17
2022-08-26T15:05:49.920Z,98577.52
2022-08-26T15:10:52.952Z,98577.84
2022-08-26T15:15:56.073Z,98582.08
2022-08-26T15:20:59.303Z,98577.25
2022-08-26T15:26:03.367Z,98579.02
2022-08-26T15:31:07.463Z,98577.31
2022-08-26T15:36:11.917Z,98573.38
2022-08-26T15:41:14.815Z,98572.44
2022-08-26T15:46:18.892Z,98573.65
2022-08-26T15:51:27.196Z,98572.78
2022-08-26T15:56:33.146Z,98568.48
2022-08-26T16:01:38.007Z,98567.85
2022-08-26T16:06:42.572Z,98566.33
2022-08-26T16:11:45.407Z,98562.77
2022-08-26T16:16:48.833Z,98562.23
2022-08-26T16:21:51.977Z,98566.92
2022-08-26T16:26:55.165Z,98564.49
2022-08-26T16:31:58.150Z,98561.15
2022-08-26T16:37:01.151Z,98557.11
2022-08-26T16:42:04.591Z,98554.65
2022-08-26T16:47:07.581Z,98554.50
2022-08-26T16:52:11.607Z,98553.89
2022-08-26T16:57:17.070Z,98549.94
2022-08-26T17:02:20.137Z,98550.10
2022-08-26T17:07:23.547Z,98549.86
2022-08-26T17:12:28.479Z,98545.84
2022-08-26T17:17:31.547Z,98545.45
2022-08-26T17:22:34.838Z,98544.88
2022-08-26T17:27:37.936Z,98539.52
2022-08-26T17:32:42.443Z,98540.48
2022-08-26T17:37:46.637Z,98544.23
2022-08-26T17:42:50.362Z,98544.11
2022-08-26T17:47:56.950Z,98545.64
2022-08-26T17:52:59.855Z,98544.02
2022-08-26T17:58:03.936Z,98541.54
2022-08-26T18:03:10.502Z,98545.02
2022-08-26T18:08:13.741Z,98548.55
2022-08-26T18:13:16.731Z,98555.11
2022-08-26T18:18:19.677Z,98556.56
2022-08-26T18:23:22.583Z,98555.82
2022-08-26T18:28:25.626Z,98559.02
2022-08-26T18:33:28.532Z,98561.17
2022-08-26T18:38:31.490Z,98561.05
2022-08-26T18:43:35.812Z,98559.41
2022-08-26T18:48:41.047Z,98560.52
2022-08-26T18:53:44.154Z,98566.84
2022-08-26T18:58:47.285Z,98569.70
2022-08-26T19:03:51.380Z,98565.55
2022-08-26T19:08:54.474Z,98562.37
2022-08-26T19:13:59.265Z,98564.82
2022-08-26T19:19:02.898Z,98558.80
2022-08-26T19:24:12.357Z,98555.51
2022-08-26T19:34:24.395Z,98555.27
2022-08-26T19:39:27.788Z,98557.88
2022-08-26T19:44:49.424Z,98557.46
2022-08-26T19:49:54.559Z,98558.22
2022-08-26T19:54:59.051Z,98556.39
2022-08-26T20:00:02.913Z,98562.61
2022-08-26T20:05:09.610Z,98563.95
2022-08-26T20:10:13.812Z,98567.60
2022-08-26T20:15:17.131Z,98570.88
2022-08-26T20:20:38.799Z,98568.39
2022-08-26T20:25:43.011Z,98571.83
2022-08-26T20:30:46.165Z,98577.59
2022-08-26T20:35:49.133Z,98585.04
2022-08-26T20:40:52.080Z,98588.20
2022-08-26T20:46:00.180Z,98591.69
2022-08-26T20:51:04.321Z,98596.09
2022-08-26T20:56:09.164Z,98600.94
2022-08-26T21:01:22.095Z,98604.63
2022-08-26T21:06:25.145Z,98606.06
2022-08-26T21:11:28.468Z,98607.07
2022-08-26T21:16:32.267Z,98604.64
2022-08-26T21:21:35.859Z,98607.64
2022-08-26T21:26:39.016Z,98605.65
2022-08-26T21:31:46.543Z,98604.48
2022-08-26T21:36:50.139Z,98607.83
2022-08-26T21:41:53.059Z,98611.17
2022-08-26T21:46:55.949Z,98613.17
2022-08-26T21:51:59.128Z,98615.73
2022-08-26T21:57:02.419Z,98612.80
2022-08-26T22:02:07.368Z,98617.14
2022-08-26T22:07:10.372Z,98610.01
2022-08-26T22:12:13.838Z,98611.10
2022-08-26T22:17:17.141Z,98614.39
2022-08-26T22:22:20.638Z,98613.08
2022-08-26T22:27:24.331Z,98615.63
2022-08-26T22:32:27.397Z,98611.25
2022-08-26T22:37:30.239Z,98612.02
2022-08-26T22:42:34.499Z,98610.30
2022-08-26T22:47:37.880Z,98606.92
2022-08-26T22:52:41.082Z,98603.72
2022-08-26T22:57:44.796Z,98603.66
2022-08-26T23:02:48.191Z,98604.35
2022-08-26T23:07:51.280Z,98600.19
2022-08-26T23:12:54.237Z,98595.23
2022-08-26T23:18:03.139Z,98596.55
2022-08-26T23:23:06.286Z,98597.30
2022-08-26T23:28:09.401Z,98594.94
2022-08-26T23:33:12.902Z,98591.52
2022-08-26T23:38:16.057Z,98583.21
2022-08-26T23:43:19.042Z,98574.46
2022-08-26T23:48:22.511Z,98567.30
2022-08-26T23:53:25.425Z,98561.55
2022-08-26T23:58:28.371Z,98555.06
